createdAt,value
2018-01-25T00:00:04.358Z,9.2
2018-01-25T00:15:05.058Z,9
2018-01-25T00:30:07.642Z,8.9
2018-01-25T00:45:05.246Z,8.6
2018-01-25T01:00:05.333Z,8.7
2018-01-25T01:15:04.801Z,9.1
2018-01-25T01:30:04.698Z,9.3
2018-01-25T01:45:04.385Z,9.4
2018-01-25T02:00:05.107Z,9.4
2018-01-25T02:15:08.284Z,9.5
2018-01-25T02:30:05.023Z,9.4
2018-01-25T02:45:04.499Z,9.6
2018-01-25T03:00:05.647Z,10.1
2018-01-25T03:15:04.684Z,10
2018-01-25T03:30:04.495Z,9.8
2018-01-25T03:45:04.921Z,9.8
2018-01-25T04:00:04.853Z,9.6
2018-01-25T04:15:04.526Z,9.6
2018-01-25T04:30:04.952Z,9.4
2018-01-25T04:45:06.249Z,9.4
2018-01-25T05:00:04.840Z,9.2
2018-01-25T05:15:04.940Z,9.2
2018-01-25T05:30:05.305Z,9.2
2018-01-25T05:45:04.780Z,9.2
2018-01-25T06:00:04.686Z,9.3
2018-01-25T06:15:05.030Z,9.4
2018-01-25T06:30:04.257Z,9.2
2018-01-25T06:45:05.152Z,9
2018-01-25T07:00:04.538Z,8.9
2018-01-25T07:15:12.111Z,8.7
2018-01-25T07:30:04.186Z,8.7
2018-01-25T07:45:04.625Z,8.7
2018-01-25T08:00:06.150Z,8.9
2018-01-25T08:15:07.720Z,9
2018-01-25T08:30:04.279Z,9
2018-01-25T08:45:04.691Z,9.1
2018-01-25T09:00:08.668Z,9.5
2018-01-25T09:15:05.109Z,9.7
2018-01-25T09:30:04.194Z,10.4
2018-01-25T09:45:08.265Z,11
2018-01-25T10:00:08.318Z,11.6
2018-01-25T10:15:04.253Z,12.1
2018-01-25T10:30:04.505Z,12.4
2018-01-25T10:45:04.885Z,12.8
2018-01-25T11:00:04.300Z,12.8
2018-01-25T11:15:06.222Z,13
2018-01-25T11:30:04.888Z,13.1
2018-01-25T11:45:05.439Z,13.2
2018-01-25T12:00:06.431Z,13.2
2018-01-25T12:15:07.906Z,13.3
2018-01-25T12:30:19.903Z,13.6
2018-01-25T12:45:04.756Z,13.7
2018-01-25T13:00:04.755Z,13.7
2018-01-25T13:15:05.753Z,13.6
2018-01-25T13:30:04.868Z,13.6
2018-01-25T13:45:04.245Z,13.7
2018-01-25T14:00:04.676Z,13.7
2018-01-25T14:15:05.097Z,13.7
2018-01-25T14:30:04.301Z,13.5
2018-01-25T14:45:04.705Z,13.4
2018-01-25T15:00:06.116Z,13.3
2018-01-25T15:15:05.009Z,13.2
2018-01-25T15:30:04.651Z,12.9
2018-01-25T15:45:05.031Z,12.8
2018-01-25T16:00:04.525Z,12.5
2018-01-25T16:15:06.026Z,12.4
2018-01-25T16:30:04.639Z,12.2
2018-01-25T16:45:05.048Z,12.1
2018-01-25T17:00:04.928Z,11.8
2018-01-25T17:15:04.817Z,11.6
2018-01-25T17:30:04.886Z,11.4
2018-01-25T17:45:04.830Z,11.3
2018-01-25T18:00:04.671Z,11.3
2018-01-25T18:15:05.043Z,11.1
2018-01-25T18:30:04.569Z,11
2018-01-25T18:45:04.519Z,11
2018-01-25T19:00:04.531Z,10.9
2018-01-25T19:15:04.899Z,10.8
2018-01-25T19:30:04.505Z,10.8
2018-01-25T19:45:05.311Z,10.7
2018-01-25T20:00:04.256Z,10.7
2018-01-25T20:15:05.160Z,10.6
2018-01-25T20:30:04.254Z,10.5
2018-01-25T20:45:04.624Z,10.4
2018-01-25T21:00:04.999Z,10.4
2018-01-25T21:15:04.886Z,10.3
2018-01-25T21:30:04.461Z,10.2
2018-01-25T21:45:04.680Z,10.1
2018-01-25T22:00:11.832Z,10.1
2018-01-25T22:15:04.869Z,10.2
2018-01-25T22:30:05.879Z,10
2018-01-25T22:45:04.441Z,9.9
2018-01-25T23:00:04.517Z,9.8
2018-01-25T23:15:06.232Z,9.7
2018-01-25T23:30:05.524Z,9.6
2018-01-25T23:45:04.817Z,9.4
